sensor_id;sensor_type;location;lat;lon;timestamp;P1;durP1;ratioP1;P2;durP2;ratioP2
10479;SDS011;12789;42.610;23.040;2023-07-31T00:00:48;11.80;;;4.75;;
10479;SDS011;12789;42.610;23.040;2023-07-31T00:03:15;7.55;;;4.35;;
10479;SDS011;12789;42.610;23.040;2023-07-31T00:05:42;9.60;;;4.85;;
10479;SDS011;12789;42.610;23.040;2023-07-31T00:08:13;7.60;;;4.90;;
10479;SDS011;12789;42.610;23.040;2023-07-31T00:10:41;7.95;;;5.25;;
10479;SDS011;12789;42.610;23.040;2023-07-31T00:13:10;8.80;;;5.13;;
10479;SDS011;12789;42.610;23.040;2023-07-31T00:15:37;10.55;;;5.28;;
10479;SDS011;12789;42.610;23.040;2023-07-31T00:18:03;10.70;;;5.65;;
10479;SDS011;12789;42.610;23.040;2023-07-31T00:20:31;8.60;;;5.93;;
10479;SDS011;12789;42.610;23.040;2023-07-31T00:22:57;9.73;;;5.53;;
10479;SDS011;12789;42.610;23.040;2023-07-31T00:25:25;13.25;;;6.22;;
10479;SDS011;12789;42.610;23.040;2023-07-31T00:27:53;13.27;;;6.50;;
10479;SDS011;12789;42.610;23.040;2023-07-31T00:30:19;9.52;;;5.38;;
10479;SDS011;12789;42.610;23.040;2023-07-31T00:32:47;10.77;;;5.30;;
10479;SDS011;12789;42.610;23.040;2023-07-31T00:35:15;8.85;;;5.03;;
10479;SDS011;12789;42.610;23.040;2023-07-31T00:37:42;6.95;;;4.57;;
10479;SDS011;12789;42.610;23.040;2023-07-31T00:40:12;5.28;;;4.75;;
10479;SDS011;12789;42.610;23.040;2023-07-31T00:42:43;4.80;;;4.40;;
10479;SDS011;12789;42.610;23.040;2023-07-31T00:45:09;6.55;;;4.70;;
10479;SDS011;12789;42.610;23.040;2023-07-31T00:47:37;5.50;;;4.47;;
10479;SDS011;12789;42.610;23.040;2023-07-31T00:50:05;9.10;;;5.05;;
10479;SDS011;12789;42.610;23.040;2023-07-31T00:52:32;13.40;;;5.50;;
10479;SDS011;12789;42.610;23.040;2023-07-31T00:54:59;6.05;;;4.82;;
10479;SDS011;12789;42.610;23.040;2023-07-31T00:57:26;7.18;;;4.72;;
10479;SDS011;12789;42.610;23.040;2023-07-31T00:59:55;7.82;;;5.43;;
10479;SDS011;12789;42.610;23.040;2023-07-31T01:02:21;7.78;;;5.05;;
10479;SDS011;12789;42.610;23.040;2023-07-31T01:04:49;8.05;;;5.53;;
10479;SDS011;12789;42.610;23.040;2023-07-31T01:07:18;10.15;;;5.80;;
10479;SDS011;12789;42.610;23.040;2023-07-31T01:09:47;11.63;;;6.20;;
10479;SDS011;12789;42.610;23.040;2023-07-31T01:12:17;12.35;;;6.53;;
10479;SDS011;12789;42.610;23.040;2023-07-31T01:15:02;6.97;;;5.97;;
10479;SDS011;12789;42.610;23.040;2023-07-31T01:17:30;9.45;;;6.25;;
10479;SDS011;12789;42.610;23.040;2023-07-31T01:19:58;10.70;;;6.88;;
10479;SDS011;12789;42.610;23.040;2023-07-31T01:22:30;9.02;;;8.30;;
10479;SDS011;12789;42.610;23.040;2023-07-31T01:25:00;10.43;;;9.43;;
10479;SDS011;12789;42.610;23.040;2023-07-31T01:27:35;10.82;;;9.80;;
10479;SDS011;12789;42.610;23.040;2023-07-31T01:30:08;11.23;;;10.18;;
10479;SDS011;12789;42.610;23.040;2023-07-31T01:32:40;10.95;;;9.85;;
10479;SDS011;12789;42.610;23.040;2023-07-31T01:35:08;12.40;;;11.25;;
10479;SDS011;12789;42.610;23.040;2023-07-31T01:37:36;12.65;;;11.45;;
10479;SDS011;12789;42.610;23.040;2023-07-31T01:40:03;12.80;;;11.65;;
10479;SDS011;12789;42.610;23.040;2023-07-31T01:42:30;12.90;;;11.70;;
10479;SDS011;12789;42.610;23.040;2023-07-31T01:44:59;12.65;;;11.55;;
10479;SDS011;12789;42.610;23.040;2023-07-31T01:47:26;11.60;;;10.40;;
10479;SDS011;12789;42.610;23.040;2023-07-31T01:49:53;11.95;;;10.88;;
10479;SDS011;12789;42.610;23.040;2023-07-31T01:52:23;13.13;;;11.32;;
10479;SDS011;12789;42.610;23.040;2023-07-31T01:54:51;12.10;;;11.00;;
10479;SDS011;12789;42.610;23.040;2023-07-31T01:57:18;11.52;;;10.52;;
10479;SDS011;12789;42.610;23.040;2023-07-31T01:59:46;12.35;;;11.15;;
10479;SDS011;12789;42.610;23.040;2023-07-31T02:02:16;12.63;;;11.52;;
10479;SDS011;12789;42.610;23.040;2023-07-31T02:04:43;12.00;;;11.00;;
10479;SDS011;12789;42.610;23.040;2023-07-31T02:07:10;12.38;;;11.15;;
10479;SDS011;12789;42.610;23.040;2023-07-31T02:09:37;13.25;;;12.05;;
10479;SDS011;12789;42.610;23.040;2023-07-31T02:12:04;13.23;;;11.93;;
10479;SDS011;12789;42.610;23.040;2023-07-31T02:14:33;13.20;;;11.90;;
10479;SDS011;12789;42.610;23.040;2023-07-31T02:17:00;12.63;;;11.32;;
10479;SDS011;12789;42.610;23.040;2023-07-31T02:19:29;13.05;;;11.73;;
10479;SDS011;12789;42.610;23.040;2023-07-31T02:21:56;11.73;;;10.63;;
10479;SDS011;12789;42.610;23.040;2023-07-31T02:24:23;12.57;;;11.23;;
10479;SDS011;12789;42.610;23.040;2023-07-31T02:26:51;11.30;;;10.23;;
10479;SDS011;12789;42.610;23.040;2023-07-31T02:29:17;13.00;;;11.80;;
10479;SDS011;12789;42.610;23.040;2023-07-31T02:31:44;11.75;;;10.57;;
10479;SDS011;12789;42.610;23.040;2023-07-31T02:34:11;11.38;;;10.23;;
10479;SDS011;12789;42.610;23.040;2023-07-31T02:36:42;12.73;;;10.07;;
10479;SDS011;12789;42.610;23.040;2023-07-31T02:39:09;11.18;;;9.73;;
10479;SDS011;12789;42.610;23.040;2023-07-31T02:41:36;11.82;;;9.57;;
10479;SDS011;12789;42.610;23.040;2023-07-31T02:44:02;11.10;;;10.05;;
10479;SDS011;12789;42.610;23.040;2023-07-31T02:46:29;10.32;;;9.35;;
10479;SDS011;12789;42.610;23.040;2023-07-31T02:48:56;11.70;;;9.98;;
10479;SDS011;12789;42.610;23.040;2023-07-31T02:51:23;11.00;;;9.90;;
10479;SDS011;12789;42.610;23.040;2023-07-31T02:53:51;10.82;;;9.73;;
10479;SDS011;12789;42.610;23.040;2023-07-31T02:56:18;14.88;;;9.80;;
10479;SDS011;12789;42.610;23.040;2023-07-31T02:58:44;9.88;;;8.98;;
10479;SDS011;12789;42.610;23.040;2023-07-31T03:01:11;11.18;;;9.80;;
10479;SDS011;12789;42.610;23.040;2023-07-31T03:03:38;10.63;;;9.65;;
10479;SDS011;12789;42.610;23.040;2023-07-31T03:06:07;11.35;;;10.35;;
10479;SDS011;12789;42.610;23.040;2023-07-31T03:08:34;11.05;;;10.02;;
10479;SDS011;12789;42.610;23.040;2023-07-31T03:11:02;11.63;;;10.40;;
10479;SDS011;12789;42.610;23.040;2023-07-31T03:13:28;17.65;;;10.32;;
10479;SDS011;12789;42.610;23.040;2023-07-31T03:15:55;11.68;;;10.27;;
10479;SDS011;12789;42.610;23.040;2023-07-31T03:18:22;11.82;;;10.70;;
10479;SDS011;12789;42.610;23.040;2023-07-31T03:20:49;12.10;;;10.85;;
10479;SDS011;12789;42.610;23.040;2023-07-31T03:23:17;12.55;;;11.25;;
10479;SDS011;12789;42.610;23.040;2023-07-31T03:25:54;13.07;;;11.77;;
10479;SDS011;12789;42.610;23.040;2023-07-31T03:28:23;13.60;;;11.73;;
10479;SDS011;12789;42.610;23.040;2023-07-31T03:30:50;13.57;;;12.13;;
10479;SDS011;12789;42.610;23.040;2023-07-31T03:33:17;14.55;;;13.18;;
10479;SDS011;12789;42.610;23.040;2023-07-31T03:35:49;13.50;;;12.20;;
10479;SDS011;12789;42.610;23.040;2023-07-31T03:38:16;14.45;;;12.57;;
10479;SDS011;12789;42.610;23.040;2023-07-31T03:40:44;13.23;;;11.80;;
10479;SDS011;12789;42.610;23.040;2023-07-31T03:43:11;15.82;;;13.57;;
10479;SDS011;12789;42.610;23.040;2023-07-31T03:45:39;16.58;;;13.80;;
10479;SDS011;12789;42.610;23.040;2023-07-31T03:48:07;13.45;;;12.10;;
10479;SDS011;12789;42.610;23.040;2023-07-31T03:50:36;18.33;;;15.10;;
10479;SDS011;12789;42.610;23.040;2023-07-31T03:53:03;19.10;;;15.52;;
10479;SDS011;12789;42.610;23.040;2023-07-31T03:55:30;13.75;;;12.30;;
10479;SDS011;12789;42.610;23.040;2023-07-31T03:57:57;12.88;;;11.57;;
10479;SDS011;12789;42.610;23.040;2023-07-31T04:00:25;15.05;;;13.55;;
10479;SDS011;12789;42.610;23.040;2023-07-31T04:02:55;15.38;;;13.85;;
10479;SDS011;12789;42.610;23.040;2023-07-31T04:05:22;14.77;;;12.68;;
10479;SDS011;12789;42.610;23.040;2023-07-31T04:07:49;14.32;;;12.82;;
10479;SDS011;12789;42.610;23.040;2023-07-31T04:10:19;14.23;;;12.82;;
10479;SDS011;12789;42.610;23.040;2023-07-31T04:12:46;15.45;;;13.38;;
10479;SDS011;12789;42.610;23.040;2023-07-31T04:15:13;14.32;;;12.82;;
10479;SDS011;12789;42.610;23.040;2023-07-31T04:17:39;15.40;;;13.88;;
10479;SDS011;12789;42.610;23.040;2023-07-31T04:20:12;16.50;;;14.77;;
10479;SDS011;12789;42.610;23.040;2023-07-31T04:22:39;16.13;;;14.60;;
10479;SDS011;12789;42.610;23.040;2023-07-31T04:25:06;15.82;;;14.32;;
10479;SDS011;12789;42.610;23.040;2023-07-31T04:27:33;16.45;;;14.82;;
10479;SDS011;12789;42.610;23.040;2023-07-31T04:30:00;15.68;;;14.15;;
10479;SDS011;12789;42.610;23.040;2023-07-31T04:32:29;16.85;;;14.65;;
10479;SDS011;12789;42.610;23.040;2023-07-31T04:34:57;15.77;;;14.13;;
10479;SDS011;12789;42.610;23.040;2023-07-31T04:37:29;15.75;;;14.15;;
10479;SDS011;12789;42.610;23.040;2023-07-31T04:39:56;15.93;;;14.32;;
10479;SDS011;12789;42.610;23.040;2023-07-31T04:42:23;15.27;;;13.68;;
10479;SDS011;12789;42.610;23.040;2023-07-31T04:44:52;15.95;;;14.35;;
10479;SDS011;12789;42.610;23.040;2023-07-31T04:47:19;14.93;;;13.27;;
10479;SDS011;12789;42.610;23.040;2023-07-31T04:49:47;19.67;;;15.07;;
10479;SDS011;12789;42.610;23.040;2023-07-31T04:52:14;17.02;;;15.23;;
10479;SDS011;12789;42.610;23.040;2023-07-31T04:54:43;17.15;;;14.80;;
10479;SDS011;12789;42.610;23.040;2023-07-31T04:57:11;18.23;;;16.33;;
10479;SDS011;12789;42.610;23.040;2023-07-31T04:59:38;16.95;;;15.35;;
10479;SDS011;12789;42.610;23.040;2023-07-31T05:02:08;18.25;;;16.17;;
10479;SDS011;12789;42.610;23.040;2023-07-31T05:04:35;18.92;;;16.98;;
10479;SDS011;12789;42.610;23.040;2023-07-31T05:07:02;18.13;;;16.35;;
10479;SDS011;12789;42.610;23.040;2023-07-31T05:09:31;18.25;;;16.48;;
10479;SDS011;12789;42.610;23.040;2023-07-31T05:12:00;19.02;;;17.13;;
10479;SDS011;12789;42.610;23.040;2023-07-31T05:14:27;17.90;;;16.17;;
10479;SDS011;12789;42.610;23.040;2023-07-31T05:16:54;20.27;;;17.55;;
10479;SDS011;12789;42.610;23.040;2023-07-31T05:19:24;19.15;;;17.27;;
10479;SDS011;12789;42.610;23.040;2023-07-31T05:21:51;19.60;;;17.60;;
10479;SDS011;12789;42.610;23.040;2023-07-31T05:24:18;19.33;;;16.80;;
10479;SDS011;12789;42.610;23.040;2023-07-31T05:26:46;18.00;;;16.00;;
10479;SDS011;12789;42.610;23.040;2023-07-31T05:29:15;17.60;;;15.88;;
10479;SDS011;12789;42.610;23.040;2023-07-31T05:31:44;16.95;;;15.18;;
10479;SDS011;12789;42.610;23.040;2023-07-31T05:34:12;17.77;;;16.08;;
10479;SDS011;12789;42.610;23.040;2023-07-31T05:36:41;17.85;;;15.52;;
10479;SDS011;12789;42.610;23.040;2023-07-31T05:39:09;19.70;;;15.82;;
10479;SDS011;12789;42.610;23.040;2023-07-31T05:41:38;15.27;;;13.77;;
10479;SDS011;12789;42.610;23.040;2023-07-31T05:44:06;15.52;;;14.05;;
10479;SDS011;12789;42.610;23.040;2023-07-31T05:46:35;14.85;;;13.45;;
10479;SDS011;12789;42.610;23.040;2023-07-31T05:49:01;14.48;;;12.57;;
10479;SDS011;12789;42.610;23.040;2023-07-31T05:51:28;13.82;;;12.52;;
10479;SDS011;12789;42.610;23.040;2023-07-31T05:53:55;11.77;;;10.77;;
10479;SDS011;12789;42.610;23.040;2023-07-31T05:56:23;13.80;;;11.52;;
10479;SDS011;12789;42.610;23.040;2023-07-31T05:58:49;11.93;;;10.93;;
10479;SDS011;12789;42.610;23.040;2023-07-31T06:01:16;8.60;;;7.80;;
10479;SDS011;12789;42.610;23.040;2023-07-31T06:03:45;6.18;;;5.68;;
10479;SDS011;12789;42.610;23.040;2023-07-31T06:06:12;6.00;;;5.50;;
10479;SDS011;12789;42.610;23.040;2023-07-31T06:08:39;5.20;;;4.70;;
10479;SDS011;12789;42.610;23.040;2023-07-31T06:11:06;4.75;;;4.35;;
10479;SDS011;12789;42.610;23.040;2023-07-31T06:13:34;4.65;;;4.00;;
10479;SDS011;12789;42.610;23.040;2023-07-31T06:16:02;4.47;;;4.13;;
10479;SDS011;12789;42.610;23.040;2023-07-31T06:18:30;3.45;;;3.22;;
10479;SDS011;12789;42.610;23.040;2023-07-31T06:20:58;3.58;;;2.97;;
10479;SDS011;12789;42.610;23.040;2023-07-31T06:23:25;3.55;;;3.25;;
10479;SDS011;12789;42.610;23.040;2023-07-31T06:25:52;3.05;;;2.85;;
10479;SDS011;12789;42.610;23.040;2023-07-31T06:28:18;3.88;;;3.58;;
10479;SDS011;12789;42.610;23.040;2023-07-31T06:30:45;3.65;;;3.35;;
10479;SDS011;12789;42.610;23.040;2023-07-31T06:33:15;3.30;;;3.10;;
10479;SDS011;12789;42.610;23.040;2023-07-31T06:35:44;3.72;;;3.10;;
10479;SDS011;12789;42.610;23.040;2023-07-31T06:38:15;3.20;;;3.00;;
10479;SDS011;12789;42.610;23.040;2023-07-31T06:40:43;9.88;;;3.58;;
10479;SDS011;12789;42.610;23.040;2023-07-31T06:43:09;3.40;;;3.10;;
10479;SDS011;12789;42.610;23.040;2023-07-31T06:45:36;3.55;;;3.25;;
10479;SDS011;12789;42.610;23.040;2023-07-31T06:48:06;3.28;;;2.97;;
10479;SDS011;12789;42.610;23.040;2023-07-31T06:50:32;3.25;;;2.95;;
10479;SDS011;12789;42.610;23.040;2023-07-31T06:53:00;2.67;;;2.45;;
10479;SDS011;12789;42.610;23.040;2023-07-31T06:55:28;2.42;;;2.20;;
10479;SDS011;12789;42.610;23.040;2023-07-31T06:57:55;2.45;;;2.33;;
10479;SDS011;12789;42.610;23.040;2023-07-31T07:00:22;3.67;;;3.38;;
10479;SDS011;12789;42.610;23.040;2023-07-31T07:02:49;3.33;;;3.13;;
10479;SDS011;12789;42.610;23.040;2023-07-31T07:05:16;3.60;;;3.40;;
10479;SDS011;12789;42.610;23.040;2023-07-31T07:07:43;4.93;;;4.47;;
10479;SDS011;12789;42.610;23.040;2023-07-31T07:10:13;4.47;;;3.40;;
10479;SDS011;12789;42.610;23.040;2023-07-31T07:12:43;2.65;;;2.45;;
10479;SDS011;12789;42.610;23.040;2023-07-31T07:15:10;3.08;;;2.88;;
10479;SDS011;12789;42.610;23.040;2023-07-31T07:17:37;2.65;;;2.53;;
10479;SDS011;12789;42.610;23.040;2023-07-31T07:20:08;3.90;;;3.60;;
10479;SDS011;12789;42.610;23.040;2023-07-31T07:22:37;4.15;;;2.80;;
10479;SDS011;12789;42.610;23.040;2023-07-31T07:25:04;3.17;;;2.70;;
10479;SDS011;12789;42.610;23.040;2023-07-31T07:27:33;3.60;;;2.83;;
10479;SDS011;12789;42.610;23.040;2023-07-31T07:30:04;2.50;;;2.30;;
10479;SDS011;12789;42.610;23.040;2023-07-31T07:32:30;2.65;;;2.42;;
10479;SDS011;12789;42.610;23.040;2023-07-31T07:34:57;2.30;;;2.20;;
10479;SDS011;12789;42.610;23.040;2023-07-31T07:37:24;2.55;;;2.40;;
10479;SDS011;12789;42.610;23.040;2023-07-31T07:39:51;2.67;;;2.47;;
10479;SDS011;12789;42.610;23.040;2023-07-31T07:42:19;3.10;;;2.50;;
10479;SDS011;12789;42.610;23.040;2023-07-31T07:44:46;4.93;;;2.72;;
10479;SDS011;12789;42.610;23.040;2023-07-31T07:47:17;3.38;;;2.65;;
10479;SDS011;12789;42.610;23.040;2023-07-31T07:49:47;4.55;;;2.58;;
10479;SDS011;12789;42.610;23.040;2023-07-31T07:52:14;2.47;;;2.28;;
10479;SDS011;12789;42.610;23.040;2023-07-31T07:54:41;2.92;;;2.20;;
10479;SDS011;12789;42.610;23.040;2023-07-31T07:57:08;3.35;;;2.05;;
10479;SDS011;12789;42.610;23.040;2023-07-31T07:59:35;4.93;;;3.75;;
10479;SDS011;12789;42.610;23.040;2023-07-31T08:02:02;2.42;;;2.13;;
10479;SDS011;12789;42.610;23.040;2023-07-31T08:04:31;2.05;;;1.90;;
10479;SDS011;12789;42.610;23.040;2023-07-31T08:06:59;3.22;;;2.03;;
10479;SDS011;12789;42.610;23.040;2023-07-31T08:09:26;1.95;;;1.80;;
10479;SDS011;12789;42.610;23.040;2023-07-31T08:11:53;2.60;;;2.30;;
10479;SDS011;12789;42.610;23.040;2023-07-31T08:14:24;4.72;;;2.10;;
10479;SDS011;12789;42.610;23.040;2023-07-31T08:16:51;2.30;;;2.10;;
10479;SDS011;12789;42.610;23.040;2023-07-31T08:19:19;2.67;;;2.45;;
10479;SDS011;12789;42.610;23.040;2023-07-31T08:21:48;4.50;;;2.30;;
10479;SDS011;12789;42.610;23.040;2023-07-31T08:24:15;2.00;;;1.90;;
10479;SDS011;12789;42.610;23.040;2023-07-31T08:26:42;2.30;;;2.10;;
10479;SDS011;12789;42.610;23.040;2023-07-31T08:29:11;2.03;;;1.88;;
10479;SDS011;12789;42.610;23.040;2023-07-31T08:31:39;2.00;;;1.90;;
10479;SDS011;12789;42.610;23.040;2023-07-31T08:34:05;2.00;;;1.70;;
10479;SDS011;12789;42.610;23.040;2023-07-31T08:36:32;2.00;;;1.70;;
10479;SDS011;12789;42.610;23.040;2023-07-31T08:39:01;1.50;;;1.40;;
10479;SDS011;12789;42.610;23.040;2023-07-31T08:41:29;2.65;;;1.65;;
10479;SDS011;12789;42.610;23.040;2023-07-31T08:43:56;1.73;;;1.63;;
10479;SDS011;12789;42.610;23.040;2023-07-31T08:46:23;1.55;;;1.45;;
10479;SDS011;12789;42.610;23.040;2023-07-31T08:48:49;1.75;;;1.65;;
10479;SDS011;12789;42.610;23.040;2023-07-31T08:51:19;1.75;;;1.65;;
10479;SDS011;12789;42.610;23.040;2023-07-31T08:53:52;1.52;;;1.42;;
10479;SDS011;12789;42.610;23.040;2023-07-31T08:56:22;1.60;;;1.50;;
10479;SDS011;12789;42.610;23.040;2023-07-31T08:58:48;1.50;;;1.40;;
10479;SDS011;12789;42.610;23.040;2023-07-31T09:01:16;2.90;;;1.40;;
10479;SDS011;12789;42.610;23.040;2023-07-31T09:03:43;1.33;;;1.30;;
10479;SDS011;12789;42.610;23.040;2023-07-31T09:06:10;1.67;;;1.58;;
10479;SDS011;12789;42.610;23.040;2023-07-31T09:08:38;1.73;;;1.63;;
10479;SDS011;12789;42.610;23.040;2023-07-31T09:11:07;1.60;;;1.50;;
10479;SDS011;12789;42.610;23.040;2023-07-31T09:13:35;3.00;;;1.42;;
10479;SDS011;12789;42.610;23.040;2023-07-31T09:16:04;2.03;;;1.52;;
10479;SDS011;12789;42.610;23.040;2023-07-31T09:18:39;1.80;;;1.70;;
10479;SDS011;12789;42.610;23.040;2023-07-31T09:21:18;1.50;;;1.40;;
10479;SDS011;12789;42.610;23.040;2023-07-31T09:23:45;1.85;;;1.75;;
10479;SDS011;12789;42.610;23.040;2023-07-31T09:26:13;3.03;;;1.42;;
10479;SDS011;12789;42.610;23.040;2023-07-31T09:28:56;1.65;;;1.30;;
10479;SDS011;12789;42.610;23.040;2023-07-31T09:31:31;2.33;;;1.33;;
10479;SDS011;12789;42.610;23.040;2023-07-31T09:33:58;1.50;;;1.30;;
10479;SDS011;12789;42.610;23.040;2023-07-31T09:36:29;1.65;;;1.55;;
10479;SDS011;12789;42.610;23.040;2023-07-31T09:38:57;2.47;;;1.63;;
10479;SDS011;12789;42.610;23.040;2023-07-31T09:41:25;1.58;;;1.48;;
10479;SDS011;12789;42.610;23.040;2023-07-31T09:43:56;1.38;;;1.27;;
10479;SDS011;12789;42.610;23.040;2023-07-31T09:46:23;1.58;;;1.48;;
10479;SDS011;12789;42.610;23.040;2023-07-31T09:48:53;1.38;;;1.23;;
10479;SDS011;12789;42.610;23.040;2023-07-31T09:51:25;1.45;;;1.35;;
10479;SDS011;12789;42.610;23.040;2023-07-31T09:53:52;2.60;;;1.60;;
10479;SDS011;12789;42.610;23.040;2023-07-31T09:56:19;1.33;;;1.30;;
10479;SDS011;12789;42.610;23.040;2023-07-31T09:58:47;1.42;;;1.33;;
10479;SDS011;12789;42.610;23.040;2023-07-31T10:01:16;3.85;;;1.60;;
10479;SDS011;12789;42.610;23.040;2023-07-31T10:03:42;4.30;;;1.73;;
10479;SDS011;12789;42.610;23.040;2023-07-31T10:06:11;2.15;;;1.95;;
10479;SDS011;12789;42.610;23.040;2023-07-31T10:08:38;1.80;;;1.70;;
10479;SDS011;12789;42.610;23.040;2023-07-31T10:11:05;1.63;;;1.52;;
10479;SDS011;12789;42.610;23.040;2023-07-31T10:13:33;2.42;;;1.70;;
10479;SDS011;12789;42.610;23.040;2023-07-31T10:15:59;1.77;;;1.67;;
10479;SDS011;12789;42.610;23.040;2023-07-31T10:18:28;1.92;;;1.83;;
10479;SDS011;12789;42.610;23.040;2023-07-31T10:20:54;1.60;;;1.50;;
10479;SDS011;12789;42.610;23.040;2023-07-31T10:23:33;1.50;;;1.40;;
10479;SDS011;12789;42.610;23.040;2023-07-31T10:26:16;1.50;;;1.40;;
10479;SDS011;12789;42.610;23.040;2023-07-31T10:28:43;1.70;;;1.60;;
10479;SDS011;12789;42.610;23.040;2023-07-31T10:31:10;1.70;;;1.60;;
10479;SDS011;12789;42.610;23.040;2023-07-31T10:33:38;1.60;;;1.50;;
10479;SDS011;12789;42.610;23.040;2023-07-31T10:36:12;2.30;;;1.40;;
10479;SDS011;12789;42.610;23.040;2023-07-31T10:38:39;1.70;;;1.60;;
10479;SDS011;12789;42.610;23.040;2023-07-31T10:41:07;1.80;;;1.70;;
10479;SDS011;12789;42.610;23.040;2023-07-31T10:43:34;1.58;;;1.48;;
10479;SDS011;12789;42.610;23.040;2023-07-31T10:46:00;1.60;;;1.50;;
10479;SDS011;12789;42.610;23.040;2023-07-31T10:48:33;1.65;;;1.50;;
10479;SDS011;12789;42.610;23.040;2023-07-31T10:51:01;1.67;;;1.58;;
10479;SDS011;12789;42.610;23.040;2023-07-31T10:53:32;1.42;;;1.33;;
10479;SDS011;12789;42.610;23.040;2023-07-31T10:55:59;2.67;;;1.27;;
10479;SDS011;12789;42.610;23.040;2023-07-31T10:58:26;2.55;;;1.50;;
10479;SDS011;12789;42.610;23.040;2023-07-31T11:00:54;1.60;;;1.50;;
10479;SDS011;12789;42.610;23.040;2023-07-31T11:03:24;1.17;;;1.10;;
10479;SDS011;12789;42.610;23.040;2023-07-31T11:05:51;2.70;;;1.58;;
10479;SDS011;12789;42.610;23.040;2023-07-31T11:08:22;1.63;;;1.52;;
10479;SDS011;12789;42.610;23.040;2023-07-31T11:10:49;1.58;;;1.45;;
10479;SDS011;12789;42.610;23.040;2023-07-31T11:13:16;1.60;;;1.42;;
10479;SDS011;12789;42.610;23.040;2023-07-31T11:15:43;1.40;;;1.30;;
10479;SDS011;12789;42.610;23.040;2023-07-31T11:18:09;2.13;;;2.03;;
10479;SDS011;12789;42.610;23.040;2023-07-31T11:20:37;2.75;;;2.33;;
10479;SDS011;12789;42.610;23.040;2023-07-31T11:23:05;4.07;;;3.00;;
10479;SDS011;12789;42.610;23.040;2023-07-31T11:25:34;2.90;;;2.70;;
10479;SDS011;12789;42.610;23.040;2023-07-31T11:28:08;3.53;;;3.22;;
10479;SDS011;12789;42.610;23.040;2023-07-31T11:30:35;3.72;;;3.40;;
10479;SDS011;12789;42.610;23.040;2023-07-31T11:33:02;3.83;;;3.58;;
10479;SDS011;12789;42.610;23.040;2023-07-31T11:35:30;3.83;;;3.45;;
10479;SDS011;12789;42.610;23.040;2023-07-31T11:37:56;3.17;;;2.97;;
10479;SDS011;12789;42.610;23.040;2023-07-31T11:40:23;3.30;;;3.10;;
10479;SDS011;12789;42.610;23.040;2023-07-31T11:42:55;2.90;;;2.70;;
10479;SDS011;12789;42.610;23.040;2023-07-31T11:45:25;3.50;;;3.20;;
10479;SDS011;12789;42.610;23.040;2023-07-31T11:47:52;4.85;;;3.40;;
10479;SDS011;12789;42.610;23.040;2023-07-31T11:50:20;3.40;;;3.20;;
10479;SDS011;12789;42.610;23.040;2023-07-31T11:52:46;4.97;;;3.88;;
10479;SDS011;12789;42.610;23.040;2023-07-31T11:55:18;4.55;;;4.15;;
10479;SDS011;12789;42.610;23.040;2023-07-31T11:57:45;5.38;;;4.30;;
10479;SDS011;12789;42.610;23.040;2023-07-31T12:00:14;4.40;;;4.10;;
10479;SDS011;12789;42.610;23.040;2023-07-31T12:02:41;5.03;;;4.60;;
10479;SDS011;12789;42.610;23.040;2023-07-31T12:05:10;4.70;;;4.40;;
10479;SDS011;12789;42.610;23.040;2023-07-31T12:07:44;4.85;;;4.55;;
10479;SDS011;12789;42.610;23.040;2023-07-31T12:10:13;4.65;;;4.35;;
10479;SDS011;12789;42.610;23.040;2023-07-31T12:12:55;5.35;;;4.85;;
10479;SDS011;12789;42.610;23.040;2023-07-31T12:15:23;5.53;;;5.13;;
10479;SDS011;12789;42.610;23.040;2023-07-31T12:17:54;4.80;;;4.50;;
10479;SDS011;12789;42.610;23.040;2023-07-31T12:20:21;9.05;;;5.28;;
10479;SDS011;12789;42.610;23.040;2023-07-31T12:22:48;5.82;;;5.32;;
10479;SDS011;12789;42.610;23.040;2023-07-31T12:25:15;5.03;;;4.72;;
10479;SDS011;12789;42.610;23.040;2023-07-31T12:27:44;5.47;;;5.07;;
10479;SDS011;12789;42.610;23.040;2023-07-31T12:33:15;5.30;;;4.80;;
10479;SDS011;12789;42.610;23.040;2023-07-31T12:35:43;4.93;;;4.53;;
10479;SDS011;12789;42.610;23.040;2023-07-31T12:38:11;5.72;;;4.10;;
10479;SDS011;12789;42.610;23.040;2023-07-31T12:40:38;3.95;;;3.65;;
10479;SDS011;12789;42.610;23.040;2023-07-31T12:43:06;4.70;;;4.40;;
10479;SDS011;12789;42.610;23.040;2023-07-31T12:45:35;5.40;;;5.00;;
10479;SDS011;12789;42.610;23.040;2023-07-31T12:48:02;4.93;;;4.63;;
10479;SDS011;12789;42.610;23.040;2023-07-31T12:50:36;4.88;;;4.57;;
10479;SDS011;12789;42.610;23.040;2023-07-31T12:53:03;4.95;;;4.55;;
10479;SDS011;12789;42.610;23.040;2023-07-31T12:55:30;6.90;;;5.28;;
10479;SDS011;12789;42.610;23.040;2023-07-31T12:57:58;5.03;;;4.55;;
10479;SDS011;12789;42.610;23.040;2023-07-31T13:00:25;5.47;;;5.07;;
10479;SDS011;12789;42.610;23.040;2023-07-31T13:02:52;5.50;;;5.10;;
10479;SDS011;12789;42.610;23.040;2023-07-31T13:05:20;5.05;;;4.70;;
10479;SDS011;12789;42.610;23.040;2023-07-31T13:07:48;5.68;;;5.20;;
10479;SDS011;12789;42.610;23.040;2023-07-31T13:10:15;5.95;;;4.85;;
10479;SDS011;12789;42.610;23.040;2023-07-31T13:12:42;5.32;;;4.93;;
10479;SDS011;12789;42.610;23.040;2023-07-31T13:15:10;5.43;;;5.03;;
10479;SDS011;12789;42.610;23.040;2023-07-31T13:17:42;4.75;;;4.45;;
10479;SDS011;12789;42.610;23.040;2023-07-31T13:20:11;5.30;;;4.90;;
10479;SDS011;12789;42.610;23.040;2023-07-31T13:22:38;5.07;;;4.68;;
10479;SDS011;12789;42.610;23.040;2023-07-31T13:25:08;5.47;;;4.20;;
10479;SDS011;12789;42.610;23.040;2023-07-31T13:27:35;5.80;;;4.50;;
10479;SDS011;12789;42.610;23.040;2023-07-31T13:30:03;4.85;;;4.45;;
10479;SDS011;12789;42.610;23.040;2023-07-31T13:32:32;4.35;;;4.05;;
10479;SDS011;12789;42.610;23.040;2023-07-31T13:35:03;4.50;;;4.20;;
10479;SDS011;12789;42.610;23.040;2023-07-31T13:37:31;4.57;;;4.28;;
10479;SDS011;12789;42.610;23.040;2023-07-31T13:39:58;5.03;;;4.55;;
10479;SDS011;12789;42.610;23.040;2023-07-31T13:42:27;5.00;;;4.53;;
10479;SDS011;12789;42.610;23.040;2023-07-31T13:44:56;4.40;;;4.10;;
10479;SDS011;12789;42.610;23.040;2023-07-31T13:47:23;4.10;;;3.80;;
10479;SDS011;12789;42.610;23.040;2023-07-31T13:49:50;4.32;;;4.00;;
10479;SDS011;12789;42.610;23.040;2023-07-31T13:52:17;4.00;;;3.70;;
10479;SDS011;12789;42.610;23.040;2023-07-31T13:54:45;4.03;;;3.50;;
10479;SDS011;12789;42.610;23.040;2023-07-31T13:57:12;3.30;;;3.10;;
10479;SDS011;12789;42.610;23.040;2023-07-31T13:59:41;2.85;;;2.72;;
10479;SDS011;12789;42.610;23.040;2023-07-31T14:02:08;2.85;;;2.75;;
10479;SDS011;12789;42.610;23.040;2023-07-31T14:04:35;3.20;;;2.92;;
10479;SDS011;12789;42.610;23.040;2023-07-31T14:07:02;3.00;;;2.80;;
10479;SDS011;12789;42.610;23.040;2023-07-31T14:09:29;3.05;;;2.85;;
10479;SDS011;12789;42.610;23.040;2023-07-31T14:11:56;3.63;;;3.28;;
10479;SDS011;12789;42.610;23.040;2023-07-31T14:14:26;2.95;;;2.75;;
10479;SDS011;12789;42.610;23.040;2023-07-31T14:16:54;3.30;;;3.10;;
10479;SDS011;12789;42.610;23.040;2023-07-31T14:19:21;3.60;;;3.17;;
10479;SDS011;12789;42.610;23.040;2023-07-31T14:21:47;3.13;;;2.83;;
10479;SDS011;12789;42.610;23.040;2023-07-31T14:24:16;2.85;;;2.65;;
10479;SDS011;12789;42.610;23.040;2023-07-31T14:26:43;2.90;;;2.67;;
10479;SDS011;12789;42.610;23.040;2023-07-31T14:29:10;2.72;;;2.60;;
10479;SDS011;12789;42.610;23.040;2023-07-31T14:31:37;3.42;;;2.45;;
10479;SDS011;12789;42.610;23.040;2023-07-31T14:34:06;2.58;;;2.35;;